createdAt,value
2023-01-08T00:00:03.283Z,8.4
2023-01-08T00:15:00.917Z,8.4
2023-01-08T00:25:02.331Z,8.5
2023-01-08T00:30:01.117Z,8.5
2023-01-08T00:45:02.027Z,8.5
2023-01-08T00:55:01.207Z,8.6
2023-01-08T01:00:04.083Z,8.6
2023-01-08T01:15:01.314Z,8.6
2023-01-08T01:20:01.149Z,8.7
2023-01-08T01:30:01.254Z,8.7
2023-01-08T01:45:00.994Z,8.7
2023-01-08T02:00:00.995Z,8.7
2023-01-08T02:15:01.441Z,8.7
2023-01-08T02:25:01.281Z,8.8
2023-01-08T02:30:08.321Z,8.8
2023-01-08T02:35:06.936Z,8.7
2023-01-08T02:45:00.955Z,8.8
2023-01-08T02:55:01.074Z,8.7
2023-01-08T03:00:03.037Z,8.7
2023-01-08T03:15:01.406Z,8.7
2023-01-08T03:30:01.236Z,8.7
2023-01-08T03:35:01.276Z,8.6
2023-01-08T03:40:01.229Z,8.5
2023-01-08T03:45:01.251Z,8.5
2023-01-08T03:50:01.180Z,8.4
2023-01-08T04:00:02.779Z,8.3
2023-01-08T04:15:01.243Z,8.2
2023-01-08T04:30:01.088Z,8.2
2023-01-08T04:45:01.279Z,8.2
2023-01-08T04:55:01.296Z,8.1
2023-01-08T05:00:02.936Z,8.1
2023-01-08T05:15:01.635Z,8.1
2023-01-08T05:25:07.321Z,8.2
2023-01-08T05:30:01.205Z,8.2
2023-01-08T05:35:01.475Z,8.3
2023-01-08T05:45:01.301Z,8.3
2023-01-08T05:50:01.211Z,8.4
2023-01-08T05:55:01.692Z,8.3
2023-01-08T06:00:03.907Z,8.3
2023-01-08T06:05:01.471Z,8.2
2023-01-08T06:15:01.409Z,8.1
2023-01-08T06:20:01.223Z,8.0
2023-01-08T06:30:03.344Z,8.0
2023-01-08T06:35:01.479Z,7.9
2023-01-08T06:45:02.291Z,7.9
2023-01-08T06:50:01.223Z,7.8
2023-01-08T07:00:03.277Z,7.8
2023-01-08T07:15:01.276Z,7.8
2023-01-08T07:20:07.267Z,7.9
2023-01-08T07:30:01.230Z,7.9
2023-01-08T07:40:02.230Z,8.0
2023-01-08T07:45:02.047Z,8.0
2023-01-08T08:00:03.873Z,8.0
2023-01-08T08:15:01.258Z,8.1
2023-01-08T08:25:01.382Z,8.2
2023-01-08T08:30:02.117Z,8.3
2023-01-08T08:35:01.256Z,8.4
2023-01-08T08:45:01.615Z,8.4
2023-01-08T08:50:03.611Z,8.5
2023-01-08T09:00:03.570Z,8.5
2023-01-08T09:15:02.271Z,8.5
2023-01-08T09:30:02.002Z,8.5
2023-01-08T09:45:02.502Z,8.5
2023-01-08T10:00:04.646Z,8.5
2023-01-08T10:05:01.531Z,8.6
2023-01-08T10:15:02.332Z,8.7
2023-01-08T10:30:01.480Z,8.7
2023-01-08T10:45:01.542Z,8.7
2023-01-08T10:50:02.024Z,8.8
2023-01-08T10:55:02.203Z,8.9
2023-01-08T11:00:03.138Z,8.9
2023-01-08T11:10:02.028Z,9.0
2023-01-08T11:15:01.445Z,9.0
2023-01-08T11:25:01.762Z,9.1
2023-01-08T11:30:01.397Z,9.2
2023-01-08T11:35:01.305Z,9.3
2023-01-08T11:45:01.351Z,9.3
2023-01-08T11:50:01.440Z,9.4
2023-01-08T12:00:03.125Z,9.3
2023-01-08T12:10:01.437Z,9.4
2023-01-08T12:15:02.087Z,9.4
2023-01-08T12:20:01.463Z,9.5
2023-01-08T12:30:02.291Z,9.5
2023-01-08T12:35:01.330Z,9.6
2023-01-08T12:45:01.338Z,9.6
2023-01-08T12:55:01.338Z,9.7
2023-01-08T13:00:04.133Z,9.7
2023-01-08T13:15:01.342Z,9.6
2023-01-08T13:20:01.743Z,9.5
2023-01-08T13:25:02.415Z,9.3
2023-01-08T13:30:02.242Z,9.2
2023-01-08T13:35:01.358Z,9.1
2023-01-08T13:45:02.227Z,9.1
2023-01-08T13:50:01.310Z,9.2
2023-01-08T14:00:03.017Z,9.1
2023-01-08T14:15:01.373Z,9.0
2023-01-08T14:20:02.442Z,8.9
2023-01-08T14:30:01.358Z,8.8
2023-01-08T14:35:02.338Z,8.7
2023-01-08T14:45:03.014Z,8.6
2023-01-08T14:50:01.374Z,8.5
2023-01-08T14:55:01.406Z,8.4
2023-01-08T15:00:02.980Z,8.3
2023-01-08T15:10:02.395Z,8.2
2023-01-08T15:15:01.444Z,8.1
2023-01-08T15:20:02.177Z,8.0
2023-01-08T15:25:02.024Z,7.9
2023-01-08T15:30:01.402Z,7.8
2023-01-08T15:35:07.467Z,7.7
2023-01-08T15:41:01.350Z,7.6
2023-01-08T15:46:01.881Z,7.4
2023-01-08T15:51:08.301Z,7.3
2023-01-08T15:56:01.304Z,7.2
2023-01-08T16:06:02.807Z,7.1
2023-01-08T16:21:01.313Z,7.1
2023-01-08T16:36:02.478Z,7.1
2023-01-08T16:46:01.434Z,7.0
2023-01-08T17:01:01.614Z,7.0
2023-01-08T17:16:02.592Z,7.0
2023-01-08T17:31:02.675Z,7.0
2023-01-08T17:36:01.373Z,6.9
2023-01-08T17:41:02.283Z,6.8
2023-01-08T17:46:02.660Z,6.7
2023-01-08T17:51:09.527Z,6.6
2023-01-08T17:56:06.820Z,6.5
2023-01-08T18:01:01.333Z,6.4
2023-01-08T18:06:01.700Z,6.3
2023-01-08T18:21:01.419Z,6.3
2023-01-08T18:31:02.417Z,6.2
2023-01-08T18:41:02.490Z,6.1
2023-01-08T18:46:02.137Z,6.2
2023-01-08T19:01:01.585Z,6.3
2023-01-08T19:06:03.426Z,6.4
2023-01-08T19:11:02.107Z,6.5
2023-01-08T19:16:02.171Z,6.6
2023-01-08T19:21:01.328Z,6.7
2023-01-08T19:26:01.517Z,6.9
2023-01-08T19:31:01.896Z,7.0
2023-01-08T19:36:01.446Z,7.1
2023-01-08T19:41:02.110Z,7.2
2023-01-08T19:51:02.677Z,7.3
2023-01-08T19:56:01.623Z,7.4
2023-01-08T20:06:02.871Z,7.5
2023-01-08T20:21:06.509Z,7.5
2023-01-08T20:36:01.388Z,7.5
2023-01-08T20:51:02.358Z,7.5
2023-01-08T21:06:01.368Z,7.5
2023-01-08T21:16:01.205Z,7.4
2023-01-08T21:21:01.316Z,7.3
2023-01-08T21:26:01.436Z,7.2
2023-01-08T21:31:02.115Z,7.1
2023-01-08T21:36:01.306Z,7.0
2023-01-08T21:41:01.320Z,6.9
2023-01-08T21:51:01.861Z,6.8
2023-01-08T21:56:04.734Z,6.7
2023-01-08T22:06:02.116Z,6.6
2023-01-08T22:11:02.342Z,6.5
2023-01-08T22:16:01.652Z,6.4
2023-01-08T22:26:02.400Z,6.3
2023-01-08T22:36:01.859Z,6.2
2023-01-08T22:46:02.096Z,6.1
2023-01-08T23:01:01.415Z,6.1
2023-01-08T23:11:01.114Z,6.2
2023-01-08T23:26:01.993Z,6.1
2023-01-08T23:41:16.152Z,6.0
